createdAt,value
2023-01-29T00:00:43.409Z,-3.61
2023-01-29T00:01:43.380Z,-3.58
2023-01-29T00:02:43.369Z,-3.79
2023-01-29T00:03:43.259Z,-3.65
2023-01-29T00:04:43.208Z,-3.61
2023-01-29T00:05:43.161Z,-3.68
2023-01-29T00:06:43.109Z,-3.59
2023-01-29T00:07:43.059Z,-3.65
2023-01-29T00:08:43.022Z,-3.76
2023-01-29T00:09:42.989Z,-3.68
2023-01-29T00:10:42.930Z,-3.74
2023-01-29T00:11:42.866Z,-3.69
2023-01-29T00:12:42.819Z,-3.77
2023-01-29T00:13:42.767Z,-3.83
2023-01-29T00:14:42.723Z,-3.76
2023-01-29T00:15:42.700Z,-3.80
2023-01-29T00:16:42.657Z,-3.79
2023-01-29T00:17:42.574Z,-3.76
2023-01-29T00:18:42.552Z,-3.72
2023-01-29T00:19:42.483Z,-3.74
2023-01-29T00:20:42.433Z,-3.70
2023-01-29T00:21:42.387Z,-3.58
2023-01-29T00:22:42.360Z,-3.55
2023-01-29T00:23:42.308Z,-3.47
2023-01-29T00:24:42.264Z,-3.43
2023-01-29T00:25:42.185Z,-3.43
2023-01-29T00:26:42.147Z,-3.31
2023-01-29T00:27:42.092Z,-3.16
2023-01-29T00:28:42.048Z,-3.01
2023-01-29T00:29:41.991Z,-3.01
2023-01-29T00:30:41.947Z,-3.10
2023-01-29T00:31:42.014Z,-3.07
2023-01-29T00:32:41.865Z,-3.10
2023-01-29T00:33:41.826Z,-3.02
2023-01-29T00:34:41.766Z,-3.05
2023-01-29T00:35:41.702Z,-2.97
2023-01-29T00:36:41.660Z,-3.00
2023-01-29T00:37:41.603Z,-2.89
2023-01-29T00:38:41.571Z,-3.02
2023-01-29T00:39:47.750Z,-3.21
2023-01-29T00:40:41.459Z,-3.08
2023-01-29T00:41:41.415Z,-3.22
2023-01-29T00:42:41.368Z,-3.21
2023-01-29T00:43:41.327Z,-3.21
2023-01-29T00:44:41.285Z,-3.15
2023-01-29T00:45:41.225Z,-3.12
2023-01-29T00:46:41.222Z,-3.07
2023-01-29T00:47:41.125Z,-3.08
2023-01-29T00:48:41.074Z,-2.98
2023-01-29T00:49:41.665Z,-2.93
2023-01-29T00:50:40.977Z,-2.97
2023-01-29T00:51:40.928Z,-3.04
2023-01-29T00:52:40.903Z,-3.00
2023-01-29T00:53:40.846Z,-3.21
2023-01-29T00:54:40.789Z,-3.26
2023-01-29T00:55:40.742Z,-3.26
2023-01-29T00:56:40.690Z,-3.37
2023-01-29T00:57:40.639Z,-3.23
2023-01-29T00:58:40.608Z,-3.30
2023-01-29T00:59:40.543Z,-3.37
2023-01-29T01:00:40.599Z,-3.33
2023-01-29T01:01:40.463Z,-3.33
2023-01-29T01:02:40.396Z,-3.44
2023-01-29T01:03:40.351Z,-3.40
2023-01-29T01:04:40.319Z,-3.43
2023-01-29T01:05:40.247Z,-3.44
2023-01-29T01:06:40.202Z,-3.34
2023-01-29T01:07:40.150Z,-3.37
2023-01-29T01:08:40.130Z,-3.34
2023-01-29T01:09:40.057Z,-3.31
2023-01-29T01:10:40.020Z,-3.43
2023-01-29T01:11:39.961Z,-3.31
2023-01-29T01:12:39.912Z,-3.40
2023-01-29T01:13:39.867Z,-3.31
2023-01-29T01:14:39.813Z,-3.34
2023-01-29T01:15:39.785Z,-3.22
2023-01-29T01:16:39.758Z,-3.37
2023-01-29T01:17:39.667Z,-3.43
2023-01-29T01:18:39.623Z,-3.37
2023-01-29T01:19:39.574Z,-3.33
2023-01-29T01:20:39.526Z,-3.46
2023-01-29T01:21:39.471Z,-3.26
2023-01-29T01:22:39.440Z,-3.31
2023-01-29T01:23:39.376Z,-3.22
2023-01-29T01:24:39.328Z,-3.15
2023-01-29T01:25:39.276Z,-3.22
2023-01-29T01:26:39.235Z,-3.19
2023-01-29T01:27:39.199Z,-3.28
2023-01-29T01:28:39.146Z,-3.36
2023-01-29T01:29:39.113Z,-3.31
2023-01-29T01:30:39.099Z,-3.25
2023-01-29T01:31:39.025Z,-3.31
2023-01-29T01:32:38.939Z,-3.36
2023-01-29T01:33:38.910Z,-3.36
2023-01-29T01:34:38.845Z,-3.36
2023-01-29T01:35:38.808Z,-3.36
2023-01-29T01:36:38.755Z,-3.43
2023-01-29T01:37:38.697Z,-3.39
2023-01-29T01:38:38.647Z,-3.47
2023-01-29T01:39:38.598Z,-3.51
2023-01-29T01:40:38.552Z,-3.57
2023-01-29T01:41:38.505Z,-3.61
2023-01-29T01:42:38.467Z,-3.62
2023-01-29T01:43:38.402Z,-3.59
2023-01-29T01:44:38.366Z,-3.69
2023-01-29T01:45:38.327Z,-3.62
2023-01-29T01:46:38.268Z,-3.57
2023-01-29T01:47:38.213Z,-3.65
2023-01-29T01:48:38.164Z,-3.54
2023-01-29T01:49:38.123Z,-3.54
2023-01-29T01:50:38.075Z,-3.59
2023-01-29T01:51:38.012Z,-3.51
2023-01-29T01:52:37.964Z,-3.51
2023-01-29T01:53:37.919Z,-3.39
2023-01-29T01:54:37.891Z,-3.37
2023-01-29T01:55:37.833Z,-3.46
2023-01-29T01:56:37.775Z,-3.36
2023-01-29T01:57:37.721Z,-3.33
2023-01-29T01:58:37.679Z,-3.41
2023-01-29T01:59:37.624Z,-3.33
2023-01-29T02:00:37.618Z,-3.33
2023-01-29T02:01:37.538Z,-3.37
2023-01-29T02:02:37.493Z,-3.26
2023-01-29T02:03:37.431Z,-3.40
2023-01-29T02:04:37.385Z,-3.23
2023-01-29T02:05:37.332Z,-3.39
2023-01-29T02:06:37.290Z,-3.23
2023-01-29T02:07:37.234Z,-3.30
2023-01-29T02:08:37.200Z,-3.25
2023-01-29T02:09:37.168Z,-3.21
2023-01-29T02:10:37.114Z,-3.23
2023-01-29T02:11:37.074Z,-3.13
2023-01-29T02:12:36.995Z,-3.13
2023-01-29T02:13:36.959Z,-3.22
2023-01-29T02:14:36.915Z,-3.25
2023-01-29T02:15:36.844Z,-3.25
2023-01-29T02:16:36.807Z,-3.23
2023-01-29T02:17:36.872Z,-3.28
2023-01-29T02:18:36.707Z,-3.39
2023-01-29T02:19:36.670Z,-3.33
2023-01-29T02:20:36.612Z,-3.31
2023-01-29T02:21:36.554Z,-3.30
2023-01-29T02:22:36.548Z,-3.30
2023-01-29T02:23:36.576Z,-3.25
2023-01-29T02:24:36.462Z,-3.34
2023-01-29T02:25:36.359Z,-3.28
2023-01-29T02:26:36.316Z,-3.30
2023-01-29T02:27:36.263Z,-3.33
2023-01-29T02:28:36.226Z,-3.33
2023-01-29T02:29:36.181Z,-3.41
2023-01-29T02:30:36.120Z,-3.34
2023-01-29T02:31:36.085Z,-3.36
2023-01-29T02:32:36.031Z,-3.25
2023-01-29T02:33:35.984Z,-3.19
2023-01-29T02:34:35.946Z,-3.18
2023-01-29T02:35:35.871Z,-3.23
2023-01-29T02:36:35.833Z,-3.30
2023-01-29T02:37:35.773Z,-3.34
2023-01-29T02:38:35.735Z,-3.31
2023-01-29T02:39:35.677Z,-3.28
2023-01-29T02:40:35.640Z,-3.36
2023-01-29T02:41:35.591Z,-3.44
2023-01-29T02:42:35.537Z,-3.23
2023-01-29T02:43:35.498Z,-3.44
2023-01-29T02:44:35.463Z,-3.30
2023-01-29T02:45:35.394Z,-3.34
2023-01-29T02:46:35.359Z,-3.37
2023-01-29T02:47:35.300Z,-3.34
2023-01-29T02:48:35.249Z,-3.25
2023-01-29T02:49:35.194Z,-3.33
2023-01-29T02:50:35.147Z,-3.30
2023-01-29T02:51:35.112Z,-3.26
2023-01-29T02:52:35.063Z,-3.18
2023-01-29T02:53:34.997Z,-3.39
2023-01-29T02:54:34.961Z,-3.37
2023-01-29T02:55:34.904Z,-3.33
2023-01-29T02:56:34.858Z,-3.37
2023-01-29T02:57:34.820Z,-3.37
2023-01-29T02:58:34.761Z,-3.40
2023-01-29T02:59:34.705Z,-3.37
2023-01-29T03:00:34.662Z,-3.39
2023-01-29T03:01:34.614Z,-3.46
2023-01-29T03:02:34.593Z,-3.37
2023-01-29T03:03:34.522Z,-3.41
2023-01-29T03:04:34.468Z,-3.41
2023-01-29T03:05:34.427Z,-3.44
2023-01-29T03:06:34.371Z,-3.46
2023-01-29T03:07:34.334Z,-3.46
2023-01-29T03:08:34.279Z,-3.47
2023-01-29T03:09:34.236Z,-3.46
2023-01-29T03:10:34.187Z,-3.55
2023-01-29T03:11:34.130Z,-3.47
2023-01-29T03:12:34.299Z,-3.47
2023-01-29T03:13:34.040Z,-3.51
2023-01-29T03:14:33.988Z,-3.55
2023-01-29T03:15:33.929Z,-3.58
2023-01-29T03:16:33.921Z,-3.47
2023-01-29T03:17:33.833Z,-3.43
2023-01-29T03:18:33.800Z,-3.40
2023-01-29T03:19:33.738Z,-3.46
2023-01-29T03:20:33.690Z,-3.51
2023-01-29T03:21:33.642Z,-3.46
2023-01-29T03:22:33.610Z,-3.47
2023-01-29T03:23:33.558Z,-3.52
2023-01-29T03:24:33.496Z,-3.41
2023-01-29T03:25:33.453Z,-3.46
2023-01-29T03:26:33.398Z,-3.33
2023-01-29T03:27:33.352Z,-3.30
2023-01-29T03:28:33.316Z,-3.28
2023-01-29T03:29:33.249Z,-3.25
2023-01-29T03:30:33.204Z,-3.25
2023-01-29T03:31:33.290Z,-3.22
2023-01-29T03:32:33.112Z,-3.41
2023-01-29T03:33:33.059Z,-3.39
2023-01-29T03:34:33.020Z,-3.49
2023-01-29T03:35:32.959Z,-3.58
2023-01-29T03:36:32.917Z,-3.59
2023-01-29T03:37:32.866Z,-3.64
2023-01-29T03:38:32.825Z,-3.70
2023-01-29T03:39:32.763Z,-3.62
2023-01-29T03:40:32.734Z,-3.61
2023-01-29T03:41:32.667Z,-3.37
2023-01-29T03:42:32.620Z,-3.26
2023-01-29T03:43:32.570Z,-3.30
2023-01-29T03:44:32.527Z,-3.34
2023-01-29T03:45:32.487Z,-3.36
2023-01-29T03:46:32.446Z,-3.52
2023-01-29T03:47:32.375Z,-3.46
2023-01-29T03:48:32.335Z,-3.49
2023-01-29T03:49:32.279Z,-3.58
2023-01-29T03:50:32.243Z,-3.55
2023-01-29T03:51:32.180Z,-3.58
2023-01-29T03:52:32.154Z,-3.58
2023-01-29T03:53:32.085Z,-3.74
2023-01-29T03:54:32.041Z,-3.76
2023-01-29T03:55:31.988Z,-3.83
2023-01-29T03:56:31.958Z,-3.76
2023-01-29T03:57:31.916Z,-3.70
2023-01-29T03:58:31.869Z,-3.69
2023-01-29T03:59:31.793Z,-3.72
2023-01-29T04:00:31.744Z,-3.57
2023-01-29T04:01:31.720Z,-3.65
2023-01-29T04:02:31.651Z,-3.65
2023-01-29T04:03:31.598Z,-3.59
2023-01-29T04:04:31.563Z,-3.62
2023-01-29T04:05:31.513Z,-3.59
2023-01-29T04:06:31.457Z,-3.55
2023-01-29T04:07:31.408Z,-3.61
2023-01-29T04:08:31.372Z,-3.61
2023-01-29T04:09:31.304Z,-3.58
2023-01-29T04:10:31.272Z,-3.64
2023-01-29T04:11:31.217Z,-3.62
2023-01-29T04:12:31.164Z,-3.55
2023-01-29T04:13:31.111Z,-3.55
2023-01-29T04:14:31.083Z,-3.55
2023-01-29T04:15:31.026Z,-3.57
2023-01-29T04:16:31.002Z,-3.49
2023-01-29T04:17:30.925Z,-3.46
2023-01-29T04:18:30.871Z,-3.40
2023-01-29T04:19:30.819Z,-3.41
2023-01-29T04:20:30.785Z,-3.26
2023-01-29T04:21:30.721Z,-3.33
2023-01-29T04:22:30.675Z,-3.23
2023-01-29T04:23:30.625Z,-3.26
2023-01-29T04:24:30.597Z,-3.26
2023-01-29T04:25:30.537Z,-3.36
2023-01-29T04:26:30.495Z,-3.28
2023-01-29T04:27:30.455Z,-3.26
2023-01-29T04:28:30.382Z,-3.23
2023-01-29T04:29:30.430Z,-3.30
2023-01-29T04:30:30.286Z,-3.16
2023-01-29T04:31:30.380Z,-3.18
2023-01-29T04:32:30.195Z,-3.26
2023-01-29T04:33:30.146Z,-3.15
2023-01-29T04:34:30.097Z,-3.30
2023-01-29T04:35:30.043Z,-3.16
2023-01-29T04:36:29.993Z,-3.07
2023-01-29T04:37:29.955Z,-3.04
2023-01-29T04:38:29.919Z,-3.07
2023-01-29T04:39:29.846Z,-3.05
2023-01-29T04:40:29.796Z,-3.23
2023-01-29T04:41:29.759Z,-3.21
2023-01-29T04:42:29.712Z,-3.12
2023-01-29T04:43:29.776Z,-3.02
2023-01-29T04:44:29.602Z,-3.08
2023-01-29T04:45:29.565Z,-3.05
2023-01-29T04:46:29.506Z,-3.12
2023-01-29T04:47:29.493Z,-3.16
2023-01-29T04:48:29.553Z,-3.08
2023-01-29T04:49:29.364Z,-3.12
2023-01-29T04:50:29.315Z,-3.16
2023-01-29T04:51:29.273Z,-3.25
2023-01-29T04:52:29.217Z,-3.21
2023-01-29T04:53:29.182Z,-3.16
2023-01-29T04:54:29.130Z,-3.30
2023-01-29T04:55:38.235Z,-3.23
2023-01-29T04:56:29.022Z,-3.16
2023-01-29T04:57:28.984Z,-3.23
2023-01-29T04:58:28.922Z,-3.28
2023-01-29T04:59:28.878Z,-3.12
2023-01-29T05:00:28.865Z,-3.23
2023-01-29T05:01:28.797Z,-3.18
2023-01-29T05:02:28.787Z,-3.19
2023-01-29T05:03:28.683Z,-3.22
2023-01-29T05:04:28.634Z,-3.25
2023-01-29T05:05:28.587Z,-3.43
2023-01-29T05:06:28.554Z,-3.39
2023-01-29T05:07:28.487Z,-3.21
2023-01-29T05:08:28.435Z,-3.31
2023-01-29T05:09:28.397Z,-3.30
2023-01-29T05:10:28.343Z,-3.30
2023-01-29T05:11:28.292Z,-3.43
2023-01-29T05:12:28.254Z,-3.43
2023-01-29T05:13:28.205Z,-3.36
2023-01-29T05:14:28.149Z,-3.34
2023-01-29T05:15:28.105Z,-3.54
2023-01-29T05:16:28.072Z,-3.43
2023-01-29T05:17:28.005Z,-3.40
2023-01-29T05:18:27.973Z,-3.37
2023-01-29T05:19:27.911Z,-3.40
2023-01-29T05:20:27.854Z,-3.39
2023-01-29T05:21:27.812Z,-3.33
2023-01-29T05:22:27.773Z,-3.34
2023-01-29T05:23:27.711Z,-3.21
2023-01-29T05:24:27.719Z,-3.18
2023-01-29T05:25:27.627Z,-3.37
2023-01-29T05:26:27.614Z,-3.34
2023-01-29T05:27:27.519Z,-3.34
2023-01-29T05:28:27.465Z,-3.26
2023-01-29T05:29:27.417Z,-3.25
2023-01-29T05:30:27.380Z,-3.28
2023-01-29T05:31:27.381Z,-3.12
2023-01-29T05:32:27.271Z,-3.08
2023-01-29T05:33:27.228Z,-3.12
2023-01-29T05:34:27.176Z,-3.10
2023-01-29T05:35:27.130Z,-3.07
2023-01-29T05:36:27.091Z,-3.02
2023-01-29T05:37:27.042Z,-3.01
2023-01-29T05:38:26.980Z,-3.07
2023-01-29T05:39:26.943Z,-3.04
2023-01-29T05:40:26.883Z,-2.98
2023-01-29T05:41:26.839Z,-2.98
2023-01-29T05:42:26.805Z,-2.94
2023-01-29T05:43:26.738Z,-2.84
2023-01-29T05:44:26.698Z,-2.84
2023-01-29T05:45:26.654Z,-2.69
2023-01-29T05:46:26.668Z,-2.66
2023-01-29T05:47:26.548Z,-2.62
2023-01-29T05:48:26.507Z,-2.77
2023-01-29T05:49:26.458Z,-2.74
2023-01-29T05:50:26.421Z,-2.61
2023-01-29T05:51:26.354Z,-2.64
2023-01-29T05:52:26.306Z,-2.69
2023-01-29T05:53:26.272Z,-2.64
2023-01-29T05:54:26.208Z,-2.55
2023-01-29T05:55:26.164Z,-2.58
2023-01-29T05:56:26.110Z,-2.56
2023-01-29T05:57:26.069Z,-2.46
2023-01-29T05:58:26.016Z,-2.53
2023-01-29T05:59:25.979Z,-2.50
2023-01-29T06:00:25.921Z,-2.44
2023-01-29T06:01:25.872Z,-2.40
2023-01-29T06:02:25.825Z,-2.50
2023-01-29T06:03:25.808Z,-2.38
2023-01-29T06:04:25.726Z,-2.37
2023-01-29T06:05:25.696Z,-2.32
2023-01-29T06:06:25.633Z,-2.35
2023-01-29T06:07:25.590Z,-2.38
2023-01-29T06:08:25.537Z,-2.25
2023-01-29T06:09:25.494Z,-2.32
2023-01-29T06:10:25.463Z,-2.29
2023-01-29T06:11:25.390Z,-2.35
2023-01-29T06:12:25.339Z,-2.25
2023-01-29T06:13:25.294Z,-2.32
2023-01-29T06:14:25.244Z,-2.14
2023-01-29T06:15:25.198Z,-2.25
2023-01-29T06:16:25.215Z,-2.19
2023-01-29T06:17:25.109Z,-2.13
2023-01-29T06:18:25.050Z,-1.98
2023-01-29T06:19:25.005Z,-2.01
2023-01-29T06:20:24.955Z,-2.10
2023-01-29T06:21:24.915Z,-2.04
2023-01-29T06:22:24.871Z,-2.07
2023-01-29T06:23:24.816Z,-1.98
2023-01-29T06:24:24.792Z,-2.06
2023-01-29T06:25:24.721Z,-2.11
2023-01-29T06:26:24.667Z,-2.00
2023-01-29T06:27:24.625Z,-2.08
2023-01-29T06:28:24.586Z,-1.96
2023-01-29T06:29:24.525Z,-1.95
2023-01-29T06:30:24.489Z,-1.92
2023-01-29T06:31:37.709Z,-1.88
2023-01-29T06:32:24.396Z,-2.10
2023-01-29T06:33:24.337Z,-1.89
2023-01-29T06:34:24.286Z,-2.00
2023-01-29T06:35:24.237Z,-2.00
2023-01-29T06:36:24.215Z,-1.98
2023-01-29T06:37:24.150Z,-1.88
2023-01-29T06:38:24.091Z,-1.96
2023-01-29T06:39:24.050Z,-1.95
2023-01-29T06:40:23.996Z,-1.93
2023-01-29T06:41:23.953Z,-1.83
2023-01-29T06:42:23.914Z,-1.98
2023-01-29T06:43:23.865Z,-1.88
2023-01-29T06:44:23.801Z,-1.88
2023-01-29T06:45:23.809Z,-1.90
2023-01-29T06:46:23.722Z,-1.83
2023-01-29T06:47:23.664Z,-1.86
2023-01-29T06:48:23.633Z,-1.86
2023-01-29T06:49:23.587Z,-1.80
2023-01-29T06:50:23.529Z,-1.82
2023-01-29T06:51:23.481Z,-1.78
2023-01-29T06:52:23.443Z,-1.83
2023-01-29T06:53:23.381Z,-1.78
2023-01-29T06:54:23.368Z,-1.80
2023-01-29T06:55:23.288Z,-1.82
2023-01-29T06:56:23.235Z,-1.77
2023-01-29T06:57:23.190Z,-1.80
2023-01-29T06:58:23.158Z,-1.85
2023-01-29T06:59:23.098Z,-1.80
2023-01-29T07:00:23.042Z,-1.82
2023-01-29T07:01:35.269Z,-1.85
2023-01-29T07:02:22.987Z,-1.85
2023-01-29T07:03:22.904Z,-1.95
2023-01-29T07:04:22.867Z,-1.98
2023-01-29T07:05:22.836Z,-1.77
2023-01-29T07:06:22.771Z,-1.93
2023-01-29T07:07:22.720Z,-1.75
2023-01-29T07:08:22.662Z,-1.85
2023-01-29T07:09:22.616Z,-1.75
2023-01-29T07:10:22.563Z,-1.80
2023-01-29T07:11:22.527Z,-1.83
2023-01-29T07:12:22.488Z,-1.77
2023-01-29T07:13:22.430Z,-1.78
2023-01-29T07:14:22.376Z,-1.83
2023-01-29T07:15:22.333Z,-1.93
2023-01-29T07:16:22.318Z,-1.78
2023-01-29T07:17:22.251Z,-1.80
2023-01-29T07:18:22.186Z,-1.88
2023-01-29T07:19:22.152Z,-1.83
2023-01-29T07:20:22.092Z,-1.83
2023-01-29T07:21:22.046Z,-1.74
2023-01-29T07:22:21.994Z,-1.80
2023-01-29T07:23:21.962Z,-1.78
2023-01-29T07:24:21.934Z,-1.71
2023-01-29T07:25:21.853Z,-1.74
2023-01-29T07:26:21.801Z,-1.77
2023-01-29T07:27:21.761Z,-1.71
2023-01-29T07:28:21.710Z,-1.72
2023-01-29T07:29:21.680Z,-1.61
2023-01-29T07:30:21.620Z,-1.64
2023-01-29T07:31:21.638Z,-1.64
2023-01-29T07:32:21.552Z,-1.68
2023-01-29T07:33:21.476Z,-1.71
2023-01-29T07:34:21.424Z,-1.54
2023-01-29T07:35:21.387Z,-1.51
2023-01-29T07:36:21.327Z,-1.54
2023-01-29T07:37:21.283Z,-1.50
2023-01-29T07:38:21.232Z,-1.57
2023-01-29T07:39:21.190Z,-1.62
2023-01-29T07:40:21.133Z,-1.54
2023-01-29T07:41:21.108Z,-1.59
2023-01-29T07:42:21.039Z,-1.50
2023-01-29T07:43:20.997Z,-1.64
2023-01-29T07:44:20.946Z,-1.54
2023-01-29T07:45:20.899Z,-1.64
2023-01-29T07:46:20.859Z,-1.61
2023-01-29T07:47:20.816Z,-1.59
2023-01-29T07:48:20.753Z,-1.47
2023-01-29T07:49:20.709Z,-1.46
2023-01-29T07:50:20.663Z,-1.51
2023-01-29T07:51:20.632Z,-1.43
2023-01-29T07:52:22.306Z,-1.47
2023-01-29T07:53:20.517Z,-1.44
2023-01-29T07:54:20.470Z,-1.39
2023-01-29T07:55:20.427Z,-1.43
2023-01-29T07:56:20.383Z,-1.38
2023-01-29T07:57:20.330Z,-1.35
2023-01-29T07:58:20.290Z,-1.43
2023-01-29T07:59:20.232Z,-1.47
2023-01-29T08:00:20.186Z,-1.39
2023-01-29T08:01:20.164Z,-1.46
2023-01-29T08:02:20.102Z,-1.47
2023-01-29T08:03:20.095Z,-1.38
2023-01-29T08:04:19.994Z,-1.36
2023-01-29T08:05:19.953Z,-1.35
2023-01-29T08:06:19.904Z,-1.31
2023-01-29T08:07:19.859Z,-1.33
2023-01-29T08:08:19.802Z,-1.43
2023-01-29T08:09:19.769Z,-1.39
2023-01-29T08:10:20.023Z,-1.29
2023-01-29T08:11:19.666Z,-1.25
2023-01-29T08:12:19.614Z,-1.25
2023-01-29T08:13:19.575Z,-1.20
2023-01-29T08:14:19.544Z,-1.31
2023-01-29T08:15:19.513Z,-1.38
2023-01-29T08:16:19.430Z,-1.31
2023-01-29T08:17:19.379Z,-1.21
2023-01-29T08:18:19.327Z,-1.25
2023-01-29T08:19:19.289Z,-1.28
2023-01-29T08:20:19.474Z,-1.20
2023-01-29T08:21:19.196Z,-1.20
2023-01-29T08:22:19.142Z,-1.10
2023-01-29T08:23:19.195Z,-1.13
2023-01-29T08:24:19.097Z,-1.15
2023-01-29T08:25:18.994Z,-1.13
2023-01-29T08:26:18.958Z,-1.18
2023-01-29T08:27:18.899Z,-1.31
2023-01-29T08:28:18.846Z,-1.35
2023-01-29T08:29:18.820Z,-1.29
2023-01-29T08:30:18.774Z,-1.23
2023-01-29T08:31:18.718Z,-1.15
2023-01-29T08:32:18.676Z,-1.13
2023-01-29T08:33:23.807Z,-1.07
2023-01-29T08:34:18.560Z,-1.08
2023-01-29T08:35:18.871Z,-1.14
2023-01-29T08:36:18.467Z,-1.05
2023-01-29T08:37:18.430Z,-1.07
2023-01-29T08:38:18.374Z,-1.00
2023-01-29T08:39:18.357Z,-1.11
2023-01-29T08:40:18.707Z,-1.02
2023-01-29T08:41:18.229Z,-1.07
2023-01-29T08:42:18.189Z,-1.03
2023-01-29T08:43:18.148Z,-1.00
2023-01-29T08:44:18.108Z,-0.96
2023-01-29T08:45:18.073Z,-1.00
2023-01-29T08:46:18.060Z,-1.02
2023-01-29T08:47:17.978Z,-0.93
2023-01-29T08:48:17.905Z,-1.08
2023-01-29T08:49:17.887Z,-1.02
2023-01-29T08:50:18.244Z,-0.96
2023-01-29T08:51:17.756Z,-0.95
2023-01-29T08:52:17.725Z,-0.97
2023-01-29T08:53:17.669Z,-1.00
2023-01-29T08:54:17.656Z,-0.85
2023-01-29T08:55:17.849Z,-0.86
2023-01-29T08:56:17.529Z,-0.92
2023-01-29T08:57:17.481Z,-0.78
2023-01-29T08:58:17.455Z,-0.76
2023-01-29T08:59:17.404Z,-0.76
2023-01-29T09:00:18.599Z,-0.71
2023-01-29T09:01:17.372Z,-0.63
2023-01-29T09:02:17.280Z,-0.78
2023-01-29T09:03:17.204Z,-0.71
2023-01-29T09:04:17.171Z,-0.59
2023-01-29T09:05:17.500Z,-0.60
2023-01-29T09:06:17.076Z,-0.60
2023-01-29T09:07:17.048Z,-0.60
2023-01-29T09:08:16.966Z,-0.59
2023-01-29T09:09:16.926Z,-0.60
2023-01-29T09:10:16.869Z,-0.68
2023-01-29T09:11:16.854Z,-0.59
2023-01-29T09:12:16.801Z,-0.45
2023-01-29T09:13:16.733Z,-0.60
2023-01-29T09:14:16.721Z,-0.49
2023-01-29T09:15:16.863Z,-0.52
2023-01-29T09:16:16.641Z,-0.53
2023-01-29T09:17:16.536Z,-0.52
2023-01-29T09:18:16.515Z,-0.58
2023-01-29T09:19:16.437Z,-0.47
2023-01-29T09:20:16.448Z,-0.49
2023-01-29T09:21:16.341Z,-0.55
2023-01-29T09:22:16.308Z,-0.58
2023-01-29T09:23:16.258Z,-0.63
2023-01-29T09:24:16.214Z,-0.63
2023-01-29T09:25:16.396Z,-0.52
2023-01-29T09:26:16.168Z,-0.55
2023-01-29T09:27:16.053Z,-0.50
2023-01-29T09:28:16.010Z,-0.35
2023-01-29T09:29:15.977Z,-0.35
2023-01-29T09:30:15.921Z,-0.32
2023-01-29T09:31:15.929Z,-0.34
2023-01-29T09:32:23.207Z,-0.32
2023-01-29T09:33:15.769Z,-0.34
2023-01-29T09:34:15.722Z,-0.30
2023-01-29T09:35:15.947Z,-0.21
2023-01-29T09:36:15.628Z,-0.32
2023-01-29T09:37:15.578Z,-0.16
2023-01-29T09:38:15.551Z,-0.17
2023-01-29T09:39:15.485Z,-0.21
2023-01-29T09:40:15.440Z,-0.14
2023-01-29T09:41:15.390Z,-0.12
2023-01-29T09:42:15.346Z,-0.08
2023-01-29T09:43:15.295Z,-0.01
2023-01-29T09:44:15.268Z,-0.05
2023-01-29T09:45:15.679Z,-0.05
2023-01-29T09:46:15.251Z,-0.09
2023-01-29T09:47:15.114Z,0.05
2023-01-29T09:48:15.066Z,0.01
2023-01-29T09:49:15.025Z,-0.02
2023-01-29T09:50:14.991Z,0.16
2023-01-29T09:51:14.923Z,0.20
2023-01-29T09:52:14.879Z,0.15
2023-01-29T09:53:14.836Z,0.25
2023-01-29T09:54:14.787Z,0.28
2023-01-29T09:55:15.182Z,0.28
2023-01-29T09:56:14.717Z,0.25
2023-01-29T09:57:14.647Z,0.25
2023-01-29T09:58:14.618Z,0.37
2023-01-29T09:59:14.641Z,0.33
2023-01-29T10:00:14.565Z,0.40
2023-01-29T10:01:14.741Z,0.45
2023-01-29T10:02:14.493Z,0.45
2023-01-29T10:03:14.367Z,0.41
2023-01-29T10:04:14.398Z,0.37
2023-01-29T10:05:14.748Z,0.40
2023-01-29T10:06:14.243Z,0.35
2023-01-29T10:07:14.173Z,0.35
2023-01-29T10:08:14.131Z,0.57
2023-01-29T10:09:14.085Z,0.51
2023-01-29T10:10:14.049Z,0.60
2023-01-29T10:11:13.987Z,0.44
2023-01-29T10:12:13.954Z,0.52
2023-01-29T10:13:13.903Z,0.57
2023-01-29T10:14:13.869Z,0.75
2023-01-29T10:15:13.975Z,0.77
2023-01-29T10:16:13.773Z,0.78
2023-01-29T10:17:13.753Z,0.80
2023-01-29T10:18:13.677Z,0.72
2023-01-29T10:19:13.623Z,0.67
2023-01-29T10:20:13.804Z,0.71
2023-01-29T10:21:13.531Z,0.77
2023-01-29T10:22:13.483Z,0.77
2023-01-29T10:23:13.434Z,0.80
2023-01-29T10:24:13.394Z,0.78
2023-01-29T10:25:13.340Z,0.81
2023-01-29T10:26:13.355Z,0.93
2023-01-29T10:27:13.271Z,0.89
2023-01-29T10:28:13.224Z,0.93
2023-01-29T10:29:13.694Z,0.86
2023-01-29T10:30:13.118Z,0.90
2023-01-29T10:31:13.158Z,0.86
2023-01-29T10:32:13.057Z,0.89
2023-01-29T10:33:12.973Z,0.88
2023-01-29T10:34:12.932Z,0.96
2023-01-29T10:35:12.882Z,0.90
2023-01-29T10:36:12.856Z,0.89
2023-01-29T10:37:12.793Z,0.98
2023-01-29T10:38:12.751Z,0.82
2023-01-29T10:39:12.700Z,0.75
2023-01-29T10:40:12.654Z,0.72
2023-01-29T10:41:12.615Z,0.78
2023-01-29T10:42:12.581Z,0.71
2023-01-29T10:43:12.519Z,0.78
2023-01-29T10:44:12.478Z,0.77
2023-01-29T10:45:12.424Z,0.75
2023-01-29T10:46:12.385Z,0.75
2023-01-29T10:47:12.381Z,0.98
2023-01-29T10:48:12.289Z,1.08
2023-01-29T10:49:12.239Z,1.21
2023-01-29T10:50:12.198Z,1.29
2023-01-29T10:51:12.146Z,1.35
2023-01-29T10:52:12.121Z,1.57
2023-01-29T10:53:12.054Z,1.61
2023-01-29T10:54:12.018Z,1.57
2023-01-29T10:55:11.965Z,1.65
2023-01-29T10:56:23.330Z,1.77
2023-01-29T10:57:11.871Z,1.89
2023-01-29T10:58:11.839Z,1.93
2023-01-29T10:59:11.784Z,2.07
2023-01-29T11:00:11.750Z,2.19
2023-01-29T11:01:11.729Z,2.22
2023-01-29T11:02:11.650Z,2.07
2023-01-29T11:03:21.676Z,2.07
2023-01-29T11:04:11.566Z,2.02
2023-01-29T11:05:11.510Z,2.07
2023-01-29T11:06:11.466Z,1.86
2023-01-29T11:07:11.416Z,1.86
2023-01-29T11:08:11.374Z,1.74
2023-01-29T11:09:11.341Z,1.75
2023-01-29T11:10:11.288Z,1.74
2023-01-29T11:11:11.235Z,1.68
2023-01-29T11:12:11.200Z,1.61
2023-01-29T11:13:11.149Z,1.72
2023-01-29T11:14:11.125Z,1.85
2023-01-29T11:15:11.060Z,1.81
2023-01-29T11:16:11.030Z,1.88
2023-01-29T11:17:11.015Z,1.79
2023-01-29T11:18:10.933Z,1.74
2023-01-29T11:19:10.882Z,1.65
2023-01-29T11:20:10.846Z,1.52
2023-01-29T11:21:10.783Z,1.50
2023-01-29T11:22:10.748Z,1.64
2023-01-29T11:23:10.694Z,1.63
2023-01-29T11:24:10.658Z,1.61
2023-01-29T11:25:10.649Z,1.50
2023-01-29T11:26:10.620Z,1.42
2023-01-29T11:27:10.547Z,1.42
2023-01-29T11:28:10.489Z,1.31
2023-01-29T11:29:10.425Z,1.32
2023-01-29T11:30:10.415Z,1.39
2023-01-29T11:31:10.423Z,1.53
2023-01-29T11:32:10.302Z,1.52
2023-01-29T11:33:10.267Z,1.44
2023-01-29T11:34:10.210Z,1.52
2023-01-29T11:35:10.167Z,1.65
2023-01-29T11:36:10.112Z,1.60
2023-01-29T11:37:10.060Z,1.60
2023-01-29T11:38:10.037Z,1.64
2023-01-29T11:39:09.968Z,1.61
2023-01-29T11:40:09.948Z,1.60
2023-01-29T11:41:09.907Z,1.50
2023-01-29T11:42:09.836Z,1.56
2023-01-29T11:43:09.788Z,1.64
2023-01-29T11:44:09.763Z,1.57
2023-01-29T11:45:09.699Z,1.43
2023-01-29T11:46:09.707Z,1.53
2023-01-29T11:47:09.608Z,1.57
2023-01-29T11:48:09.568Z,1.57
2023-01-29T11:49:20.328Z,1.53
2023-01-29T11:50:09.468Z,1.52
2023-01-29T11:51:09.426Z,1.56
2023-01-29T11:52:09.392Z,1.61
2023-01-29T11:53:09.336Z,1.56
2023-01-29T11:54:09.294Z,1.65
2023-01-29T11:55:09.238Z,1.64
2023-01-29T11:56:09.209Z,1.63
2023-01-29T11:57:09.147Z,1.67
2023-01-29T11:58:09.108Z,1.65
2023-01-29T11:59:09.067Z,1.68
2023-01-29T12:00:09.014Z,1.64
2023-01-29T12:01:08.978Z,1.67
2023-01-29T12:02:08.933Z,1.70
2023-01-29T12:03:08.870Z,1.70
2023-01-29T12:04:08.880Z,1.64
2023-01-29T12:05:08.782Z,1.60
2023-01-29T12:06:08.807Z,1.56
2023-01-29T12:07:08.701Z,1.57
2023-01-29T12:08:08.660Z,1.67
2023-01-29T12:09:08.598Z,1.63
2023-01-29T12:10:08.555Z,1.57
2023-01-29T12:11:08.505Z,1.57
2023-01-29T12:12:08.465Z,1.56
2023-01-29T12:13:08.414Z,1.60
2023-01-29T12:14:08.385Z,1.57
2023-01-29T12:15:08.322Z,1.50
2023-01-29T12:16:08.345Z,1.52
2023-01-29T12:17:08.235Z,1.49
2023-01-29T12:18:08.187Z,1.54
2023-01-29T12:19:08.139Z,1.56
2023-01-29T12:20:08.108Z,1.67
2023-01-29T12:21:08.061Z,1.60
2023-01-29T12:22:08.011Z,1.71
2023-01-29T12:23:07.980Z,1.70
2023-01-29T12:24:07.933Z,1.72
2023-01-29T12:25:07.874Z,1.68
2023-01-29T12:26:07.823Z,1.60
2023-01-29T12:27:07.775Z,1.64
2023-01-29T12:28:09.453Z,1.77
2023-01-29T12:29:07.681Z,1.67
2023-01-29T12:30:07.661Z,1.74
2023-01-29T12:31:07.611Z,1.75
2023-01-29T12:32:07.550Z,1.71
2023-01-29T12:33:07.498Z,1.75
2023-01-29T12:34:07.461Z,1.65
2023-01-29T12:35:07.432Z,1.81
2023-01-29T12:36:09.279Z,1.79
2023-01-29T12:37:07.324Z,1.79
2023-01-29T12:38:07.274Z,1.82
2023-01-29T12:39:07.229Z,1.70
2023-01-29T12:40:07.180Z,1.89
2023-01-29T12:41:07.142Z,1.85
2023-01-29T12:42:07.094Z,1.79
2023-01-29T12:43:07.041Z,1.86
2023-01-29T12:44:07.001Z,1.86
2023-01-29T12:45:06.946Z,1.74
2023-01-29T12:46:06.938Z,1.85
2023-01-29T12:47:06.934Z,1.90
2023-01-29T12:48:06.816Z,1.95
2023-01-29T12:49:06.775Z,1.85
2023-01-29T12:50:06.734Z,1.77
2023-01-29T12:51:06.676Z,1.89
2023-01-29T12:52:06.643Z,1.86
2023-01-29T12:53:06.597Z,1.89
2023-01-29T12:54:06.544Z,1.86
2023-01-29T12:55:06.500Z,1.70
2023-01-29T12:56:06.452Z,1.81
2023-01-29T12:57:06.415Z,1.82
2023-01-29T12:58:06.354Z,1.74